sensor_id;sensor_type;location;lat;lon;timestamp;P1;durP1;ratioP1;P2;durP2;ratioP2
75090;SDS011;63674;48.048;8.306;2023-04-06T00:00:39;10.38;;;4.57;;
75090;SDS011;63674;48.048;8.306;2023-04-06T00:03:07;10.38;;;3.80;;
75090;SDS011;63674;48.048;8.306;2023-04-06T00:05:36;8.80;;;3.67;;
75090;SDS011;63674;48.048;8.306;2023-04-06T00:08:05;11.60;;;3.80;;
75090;SDS011;63674;48.048;8.306;2023-04-06T00:10:33;9.70;;;3.63;;
75090;SDS011;63674;48.048;8.306;2023-04-06T00:13:02;9.17;;;3.70;;
75090;SDS011;63674;48.048;8.306;2023-04-06T00:15:33;10.40;;;3.67;;
75090;SDS011;63674;48.048;8.306;2023-04-06T00:18:03;11.65;;;3.85;;
75090;SDS011;63674;48.048;8.306;2023-04-06T00:20:31;10.00;;;3.72;;
75090;SDS011;63674;48.048;8.306;2023-04-06T00:23:00;10.75;;;4.72;;
75090;SDS011;63674;48.048;8.306;2023-04-06T00:25:28;9.70;;;4.00;;
75090;SDS011;63674;48.048;8.306;2023-04-06T00:27:57;8.63;;;3.88;;
75090;SDS011;63674;48.048;8.306;2023-04-06T00:30:25;11.45;;;4.85;;
75090;SDS011;63674;48.048;8.306;2023-04-06T00:32:54;10.48;;;4.40;;
75090;SDS011;63674;48.048;8.306;2023-04-06T00:35:24;8.68;;;4.15;;
75090;SDS011;63674;48.048;8.306;2023-04-06T00:37:52;10.30;;;4.70;;
75090;SDS011;63674;48.048;8.306;2023-04-06T00:40:20;11.05;;;4.28;;
75090;SDS011;63674;48.048;8.306;2023-04-06T00:42:49;11.07;;;4.70;;
75090;SDS011;63674;48.048;8.306;2023-04-06T00:45:18;10.10;;;4.47;;
75090;SDS011;63674;48.048;8.306;2023-04-06T00:47:46;9.00;;;4.10;;
75090;SDS011;63674;48.048;8.306;2023-04-06T00:50:15;8.75;;;3.95;;
75090;SDS011;63674;48.048;8.306;2023-04-06T00:52:45;12.43;;;4.88;;
75090;SDS011;63674;48.048;8.306;2023-04-06T00:55:14;12.85;;;4.90;;
75090;SDS011;63674;48.048;8.306;2023-04-06T00:57:43;12.82;;;5.50;;
75090;SDS011;63674;48.048;8.306;2023-04-06T01:00:12;10.15;;;4.68;;
75090;SDS011;63674;48.048;8.306;2023-04-06T01:02:41;11.00;;;4.78;;
75090;SDS011;63674;48.048;8.306;2023-04-06T01:05:11;10.57;;;4.70;;
75090;SDS011;63674;48.048;8.306;2023-04-06T01:08:00;10.38;;;4.20;;
75090;SDS011;63674;48.048;8.306;2023-04-06T01:10:29;9.38;;;4.00;;
75090;SDS011;63674;48.048;8.306;2023-04-06T01:12:57;7.88;;;3.72;;
75090;SDS011;63674;48.048;8.306;2023-04-06T01:15:26;8.87;;;4.03;;
75090;SDS011;63674;48.048;8.306;2023-04-06T01:17:56;8.57;;;3.83;;
75090;SDS011;63674;48.048;8.306;2023-04-06T01:20:25;8.77;;;3.78;;
75090;SDS011;63674;48.048;8.306;2023-04-06T01:22:55;8.82;;;3.95;;
75090;SDS011;63674;48.048;8.306;2023-04-06T01:25:23;9.63;;;3.67;;
75090;SDS011;63674;48.048;8.306;2023-04-06T01:27:52;8.73;;;4.20;;
75090;SDS011;63674;48.048;8.306;2023-04-06T01:30:20;9.00;;;4.13;;
75090;SDS011;63674;48.048;8.306;2023-04-06T01:32:49;9.13;;;3.50;;
75090;SDS011;63674;48.048;8.306;2023-04-06T01:35:18;12.38;;;4.10;;
75090;SDS011;63674;48.048;8.306;2023-04-06T01:37:47;11.18;;;4.28;;
75090;SDS011;63674;48.048;8.306;2023-04-06T01:40:17;10.03;;;4.27;;
75090;SDS011;63674;48.048;8.306;2023-04-06T01:42:46;9.73;;;3.83;;
75090;SDS011;63674;48.048;8.306;2023-04-06T01:45:14;9.85;;;3.90;;
75090;SDS011;63674;48.048;8.306;2023-04-06T01:47:43;10.55;;;4.70;;
75090;SDS011;63674;48.048;8.306;2023-04-06T01:50:11;11.50;;;4.15;;
75090;SDS011;63674;48.048;8.306;2023-04-06T01:52:40;9.30;;;4.22;;
75090;SDS011;63674;48.048;8.306;2023-04-06T01:55:09;9.07;;;3.92;;
75090;SDS011;63674;48.048;8.306;2023-04-06T01:57:38;12.02;;;4.30;;
75090;SDS011;63674;48.048;8.306;2023-04-06T02:00:07;11.60;;;4.57;;
75090;SDS011;63674;48.048;8.306;2023-04-06T02:02:37;9.90;;;4.35;;
75090;SDS011;63674;48.048;8.306;2023-04-06T02:05:06;11.27;;;4.63;;
75090;SDS011;63674;48.048;8.306;2023-04-06T02:07:35;10.20;;;4.30;;
75090;SDS011;63674;48.048;8.306;2023-04-06T02:10:04;9.60;;;3.78;;
75090;SDS011;63674;48.048;8.306;2023-04-06T02:12:41;9.25;;;4.10;;
75090;SDS011;63674;48.048;8.306;2023-04-06T02:15:10;9.23;;;3.92;;
75090;SDS011;63674;48.048;8.306;2023-04-06T02:17:39;9.23;;;4.27;;
75090;SDS011;63674;48.048;8.306;2023-04-06T02:20:08;10.85;;;4.32;;
75090;SDS011;63674;48.048;8.306;2023-04-06T02:22:37;8.80;;;3.97;;
75090;SDS011;63674;48.048;8.306;2023-04-06T02:25:07;10.63;;;4.60;;
75090;SDS011;63674;48.048;8.306;2023-04-06T02:27:36;9.15;;;4.00;;
75090;SDS011;63674;48.048;8.306;2023-04-06T02:30:06;8.43;;;4.07;;
75090;SDS011;63674;48.048;8.306;2023-04-06T02:32:36;10.82;;;4.20;;
75090;SDS011;63674;48.048;8.306;2023-04-06T02:35:05;9.55;;;3.97;;
75090;SDS011;63674;48.048;8.306;2023-04-06T02:37:34;11.25;;;4.70;;
75090;SDS011;63674;48.048;8.306;2023-04-06T02:40:03;9.98;;;4.30;;
75090;SDS011;63674;48.048;8.306;2023-04-06T02:42:32;10.67;;;4.27;;
75090;SDS011;63674;48.048;8.306;2023-04-06T02:45:01;9.05;;;3.70;;
75090;SDS011;63674;48.048;8.306;2023-04-06T02:47:32;10.40;;;4.18;;
75090;SDS011;63674;48.048;8.306;2023-04-06T02:50:01;11.90;;;4.40;;
75090;SDS011;63674;48.048;8.306;2023-04-06T02:52:30;8.93;;;4.07;;
75090;SDS011;63674;48.048;8.306;2023-04-06T02:54:59;9.35;;;4.40;;
75090;SDS011;63674;48.048;8.306;2023-04-06T02:57:27;9.10;;;4.13;;
75090;SDS011;63674;48.048;8.306;2023-04-06T02:59:56;11.82;;;4.20;;
75090;SDS011;63674;48.048;8.306;2023-04-06T03:02:24;10.25;;;4.20;;
75090;SDS011;63674;48.048;8.306;2023-04-06T03:04:54;8.35;;;4.05;;
75090;SDS011;63674;48.048;8.306;2023-04-06T03:07:23;11.13;;;4.55;;
75090;SDS011;63674;48.048;8.306;2023-04-06T03:09:51;11.65;;;4.43;;
75090;SDS011;63674;48.048;8.306;2023-04-06T03:12:19;9.50;;;4.45;;
75090;SDS011;63674;48.048;8.306;2023-04-06T03:14:48;9.32;;;4.25;;
75090;SDS011;63674;48.048;8.306;2023-04-06T03:17:17;10.73;;;4.50;;
75090;SDS011;63674;48.048;8.306;2023-04-06T03:19:45;10.10;;;4.87;;
75090;SDS011;63674;48.048;8.306;2023-04-06T03:22:15;10.00;;;4.43;;
75090;SDS011;63674;48.048;8.306;2023-04-06T03:24:43;11.48;;;4.43;;
75090;SDS011;63674;48.048;8.306;2023-04-06T03:27:12;11.13;;;4.43;;
75090;SDS011;63674;48.048;8.306;2023-04-06T03:29:41;9.80;;;4.30;;
75090;SDS011;63674;48.048;8.306;2023-04-06T03:32:09;11.60;;;4.30;;
75090;SDS011;63674;48.048;8.306;2023-04-06T03:34:38;8.88;;;4.10;;
75090;SDS011;63674;48.048;8.306;2023-04-06T03:37:06;10.13;;;4.20;;
75090;SDS011;63674;48.048;8.306;2023-04-06T03:39:37;9.85;;;4.53;;
75090;SDS011;63674;48.048;8.306;2023-04-06T03:42:06;10.63;;;4.60;;
75090;SDS011;63674;48.048;8.306;2023-04-06T03:44:35;9.70;;;4.43;;
75090;SDS011;63674;48.048;8.306;2023-04-06T03:47:03;10.57;;;4.55;;
75090;SDS011;63674;48.048;8.306;2023-04-06T03:49:32;9.07;;;4.38;;
75090;SDS011;63674;48.048;8.306;2023-04-06T03:52:02;9.05;;;4.32;;
75090;SDS011;63674;48.048;8.306;2023-04-06T03:54:30;8.73;;;4.20;;
75090;SDS011;63674;48.048;8.306;2023-04-06T03:57:01;9.02;;;4.18;;
75090;SDS011;63674;48.048;8.306;2023-04-06T03:59:29;12.35;;;4.93;;
75090;SDS011;63674;48.048;8.306;2023-04-06T04:01:58;10.02;;;4.70;;
75090;SDS011;63674;48.048;8.306;2023-04-06T04:04:27;9.63;;;3.97;;
75090;SDS011;63674;48.048;8.306;2023-04-06T04:06:56;10.60;;;4.20;;
75090;SDS011;63674;48.048;8.306;2023-04-06T04:09:24;10.93;;;4.87;;
75090;SDS011;63674;48.048;8.306;2023-04-06T04:11:55;10.10;;;3.90;;
75090;SDS011;63674;48.048;8.306;2023-04-06T04:14:25;10.57;;;4.75;;
75090;SDS011;63674;48.048;8.306;2023-04-06T04:16:53;11.10;;;4.88;;
75090;SDS011;63674;48.048;8.306;2023-04-06T04:19:22;9.68;;;4.57;;
75090;SDS011;63674;48.048;8.306;2023-04-06T04:21:51;10.80;;;4.57;;
75090;SDS011;63674;48.048;8.306;2023-04-06T04:24:20;9.50;;;4.05;;
75090;SDS011;63674;48.048;8.306;2023-04-06T04:26:48;10.45;;;3.90;;
75090;SDS011;63674;48.048;8.306;2023-04-06T04:29:17;11.55;;;4.90;;
75090;SDS011;63674;48.048;8.306;2023-04-06T04:31:49;12.52;;;5.18;;
75090;SDS011;63674;48.048;8.306;2023-04-06T04:34:18;9.27;;;4.40;;
75090;SDS011;63674;48.048;8.306;2023-04-06T04:36:50;11.75;;;4.45;;
75090;SDS011;63674;48.048;8.306;2023-04-06T04:39:19;11.27;;;4.78;;
75090;SDS011;63674;48.048;8.306;2023-04-06T04:41:48;10.48;;;4.38;;
75090;SDS011;63674;48.048;8.306;2023-04-06T04:44:16;13.20;;;5.07;;
75090;SDS011;63674;48.048;8.306;2023-04-06T04:46:45;10.43;;;4.33;;
75090;SDS011;63674;48.048;8.306;2023-04-06T04:49:15;10.05;;;4.90;;
75090;SDS011;63674;48.048;8.306;2023-04-06T04:51:43;11.27;;;4.97;;
75090;SDS011;63674;48.048;8.306;2023-04-06T04:54:12;11.80;;;5.45;;
75090;SDS011;63674;48.048;8.306;2023-04-06T04:56:40;11.52;;;5.20;;
75090;SDS011;63674;48.048;8.306;2023-04-06T04:59:09;13.23;;;5.77;;
75090;SDS011;63674;48.048;8.306;2023-04-06T05:01:37;11.02;;;5.03;;
75090;SDS011;63674;48.048;8.306;2023-04-06T05:04:21;13.13;;;5.35;;
75090;SDS011;63674;48.048;8.306;2023-04-06T05:06:50;10.93;;;5.40;;
75090;SDS011;63674;48.048;8.306;2023-04-06T05:09:18;13.80;;;5.32;;
75090;SDS011;63674;48.048;8.306;2023-04-06T05:11:47;11.07;;;5.40;;
75090;SDS011;63674;48.048;8.306;2023-04-06T05:14:15;12.38;;;5.28;;
75090;SDS011;63674;48.048;8.306;2023-04-06T05:16:44;11.45;;;5.20;;
75090;SDS011;63674;48.048;8.306;2023-04-06T05:19:13;11.82;;;5.50;;
75090;SDS011;63674;48.048;8.306;2023-04-06T05:21:43;12.32;;;5.50;;
75090;SDS011;63674;48.048;8.306;2023-04-06T05:24:12;13.80;;;5.40;;
75090;SDS011;63674;48.048;8.306;2023-04-06T05:26:40;17.92;;;6.47;;
75090;SDS011;63674;48.048;8.306;2023-04-06T05:29:09;17.35;;;6.85;;
75090;SDS011;63674;48.048;8.306;2023-04-06T05:31:39;17.98;;;7.25;;
75090;SDS011;63674;48.048;8.306;2023-04-06T05:34:08;16.90;;;7.05;;
75090;SDS011;63674;48.048;8.306;2023-04-06T05:36:38;19.17;;;7.33;;
75090;SDS011;63674;48.048;8.306;2023-04-06T05:39:09;23.10;;;8.65;;
75090;SDS011;63674;48.048;8.306;2023-04-06T05:41:38;20.25;;;7.97;;
75090;SDS011;63674;48.048;8.306;2023-04-06T05:44:07;22.02;;;8.13;;
75090;SDS011;63674;48.048;8.306;2023-04-06T05:46:35;18.98;;;7.60;;
75090;SDS011;63674;48.048;8.306;2023-04-06T05:49:04;21.33;;;8.23;;
75090;SDS011;63674;48.048;8.306;2023-04-06T05:51:32;18.08;;;7.20;;
75090;SDS011;63674;48.048;8.306;2023-04-06T05:54:01;21.45;;;8.32;;
75090;SDS011;63674;48.048;8.306;2023-04-06T05:56:31;20.95;;;8.35;;
75090;SDS011;63674;48.048;8.306;2023-04-06T05:58:59;23.58;;;9.00;;
75090;SDS011;63674;48.048;8.306;2023-04-06T06:01:28;19.97;;;8.00;;
75090;SDS011;63674;48.048;8.306;2023-04-06T06:03:56;16.33;;;6.85;;
75090;SDS011;63674;48.048;8.306;2023-04-06T06:06:25;17.38;;;6.88;;
75090;SDS011;63674;48.048;8.306;2023-04-06T06:08:56;17.42;;;7.13;;
75090;SDS011;63674;48.048;8.306;2023-04-06T06:11:27;18.27;;;7.10;;
75090;SDS011;63674;48.048;8.306;2023-04-06T06:14:17;19.60;;;7.80;;
75090;SDS011;63674;48.048;8.306;2023-04-06T06:16:46;21.50;;;7.40;;
75090;SDS011;63674;48.048;8.306;2023-04-06T06:19:15;15.88;;;6.47;;
75090;SDS011;63674;48.048;8.306;2023-04-06T06:21:44;16.25;;;6.38;;
75090;SDS011;63674;48.048;8.306;2023-04-06T06:24:12;13.27;;;5.63;;
75090;SDS011;63674;48.048;8.306;2023-04-06T06:26:41;14.67;;;6.20;;
75090;SDS011;63674;48.048;8.306;2023-04-06T06:29:10;14.27;;;6.10;;
75090;SDS011;63674;48.048;8.306;2023-04-06T06:31:40;13.18;;;5.90;;
75090;SDS011;63674;48.048;8.306;2023-04-06T06:34:08;15.30;;;6.35;;
75090;SDS011;63674;48.048;8.306;2023-04-06T06:36:39;13.93;;;6.28;;
75090;SDS011;63674;48.048;8.306;2023-04-06T06:39:08;12.17;;;5.77;;
75090;SDS011;63674;48.048;8.306;2023-04-06T06:41:37;12.82;;;6.10;;
75090;SDS011;63674;48.048;8.306;2023-04-06T06:44:05;13.25;;;5.43;;
75090;SDS011;63674;48.048;8.306;2023-04-06T06:46:34;10.15;;;4.95;;
75090;SDS011;63674;48.048;8.306;2023-04-06T06:49:05;10.23;;;4.70;;
75090;SDS011;63674;48.048;8.306;2023-04-06T06:51:33;11.83;;;4.87;;
75090;SDS011;63674;48.048;8.306;2023-04-06T06:54:02;10.50;;;4.85;;
75090;SDS011;63674;48.048;8.306;2023-04-06T06:56:31;11.65;;;4.32;;
75090;SDS011;63674;48.048;8.306;2023-04-06T06:59:02;8.95;;;3.80;;
75090;SDS011;63674;48.048;8.306;2023-04-06T07:01:31;11.85;;;4.85;;
75090;SDS011;63674;48.048;8.306;2023-04-06T07:04:01;10.07;;;4.50;;
75090;SDS011;63674;48.048;8.306;2023-04-06T07:06:31;10.82;;;4.78;;
75090;SDS011;63674;48.048;8.306;2023-04-06T07:09:00;11.55;;;4.00;;
75090;SDS011;63674;48.048;8.306;2023-04-06T07:11:29;9.25;;;3.97;;
75090;SDS011;63674;48.048;8.306;2023-04-06T07:13:58;9.93;;;4.10;;
75090;SDS011;63674;48.048;8.306;2023-04-06T07:16:26;9.67;;;3.97;;
75090;SDS011;63674;48.048;8.306;2023-04-06T07:18:55;9.65;;;4.10;;
75090;SDS011;63674;48.048;8.306;2023-04-06T07:21:23;9.32;;;4.10;;
75090;SDS011;63674;48.048;8.306;2023-04-06T07:23:54;10.63;;;4.78;;
75090;SDS011;63674;48.048;8.306;2023-04-06T07:26:23;9.05;;;4.22;;
75090;SDS011;63674;48.048;8.306;2023-04-06T07:28:52;10.67;;;4.33;;
75090;SDS011;63674;48.048;8.306;2023-04-06T07:31:20;11.27;;;4.80;;
75090;SDS011;63674;48.048;8.306;2023-04-06T07:33:49;10.30;;;4.60;;
75090;SDS011;63674;48.048;8.306;2023-04-06T07:36:17;9.43;;;4.40;;
75090;SDS011;63674;48.048;8.306;2023-04-06T07:38:47;10.98;;;4.50;;
75090;SDS011;63674;48.048;8.306;2023-04-06T07:41:17;10.43;;;4.77;;
75090;SDS011;63674;48.048;8.306;2023-04-06T07:43:46;10.73;;;4.85;;
75090;SDS011;63674;48.048;8.306;2023-04-06T07:48:50;12.02;;;4.78;;
75090;SDS011;63674;48.048;8.306;2023-04-06T07:51:19;9.60;;;4.35;;
75090;SDS011;63674;48.048;8.306;2023-04-06T07:53:47;12.20;;;4.70;;
75090;SDS011;63674;48.048;8.306;2023-04-06T07:56:19;9.15;;;4.20;;
75090;SDS011;63674;48.048;8.306;2023-04-06T07:58:49;9.27;;;3.80;;
75090;SDS011;63674;48.048;8.306;2023-04-06T08:01:19;9.55;;;4.30;;
75090;SDS011;63674;48.048;8.306;2023-04-06T08:03:48;9.73;;;4.30;;
75090;SDS011;63674;48.048;8.306;2023-04-06T08:06:17;11.02;;;4.97;;
75090;SDS011;63674;48.048;8.306;2023-04-06T08:08:45;13.43;;;5.07;;
75090;SDS011;63674;48.048;8.306;2023-04-06T08:11:14;13.73;;;5.13;;
75090;SDS011;63674;48.048;8.306;2023-04-06T08:13:44;11.77;;;4.53;;
75090;SDS011;63674;48.048;8.306;2023-04-06T08:16:12;10.05;;;4.38;;
75090;SDS011;63674;48.048;8.306;2023-04-06T08:18:41;10.95;;;4.05;;
75090;SDS011;63674;48.048;8.306;2023-04-06T08:21:10;10.35;;;4.57;;
75090;SDS011;63674;48.048;8.306;2023-04-06T08:23:38;8.68;;;4.20;;
75090;SDS011;63674;48.048;8.306;2023-04-06T08:26:07;9.65;;;4.95;;
75090;SDS011;63674;48.048;8.306;2023-04-06T08:28:36;9.70;;;4.30;;
75090;SDS011;63674;48.048;8.306;2023-04-06T08:31:06;9.90;;;4.43;;
75090;SDS011;63674;48.048;8.306;2023-04-06T08:33:34;9.18;;;4.50;;
75090;SDS011;63674;48.048;8.306;2023-04-06T08:36:09;9.82;;;4.38;;
75090;SDS011;63674;48.048;8.306;2023-04-06T08:38:39;12.38;;;3.97;;
75090;SDS011;63674;48.048;8.306;2023-04-06T08:41:09;9.10;;;4.30;;
75090;SDS011;63674;48.048;8.306;2023-04-06T08:43:41;9.10;;;4.35;;
75090;SDS011;63674;48.048;8.306;2023-04-06T08:46:13;13.68;;;4.88;;
75090;SDS011;63674;48.048;8.306;2023-04-06T08:48:43;8.93;;;3.97;;
75090;SDS011;63674;48.048;8.306;2023-04-06T08:51:11;9.38;;;4.25;;
75090;SDS011;63674;48.048;8.306;2023-04-06T08:53:40;16.67;;;5.68;;
75090;SDS011;63674;48.048;8.306;2023-04-06T08:56:09;13.90;;;5.18;;
75090;SDS011;63674;48.048;8.306;2023-04-06T08:58:38;10.27;;;4.07;;
75090;SDS011;63674;48.048;8.306;2023-04-06T09:01:08;9.55;;;4.43;;
75090;SDS011;63674;48.048;8.306;2023-04-06T09:03:41;10.02;;;4.88;;
75090;SDS011;63674;48.048;8.306;2023-04-06T09:06:11;10.63;;;4.22;;
75090;SDS011;63674;48.048;8.306;2023-04-06T09:08:41;9.90;;;4.10;;
75090;SDS011;63674;48.048;8.306;2023-04-06T09:11:10;8.87;;;4.17;;
75090;SDS011;63674;48.048;8.306;2023-04-06T09:13:45;10.07;;;4.15;;
75090;SDS011;63674;48.048;8.306;2023-04-06T09:16:16;8.45;;;3.78;;
75090;SDS011;63674;48.048;8.306;2023-04-06T09:18:46;9.45;;;3.95;;
75090;SDS011;63674;48.048;8.306;2023-04-06T09:21:16;9.18;;;4.65;;
75090;SDS011;63674;48.048;8.306;2023-04-06T09:23:57;9.73;;;4.13;;
75090;SDS011;63674;48.048;8.306;2023-04-06T09:26:27;11.15;;;4.30;;
75090;SDS011;63674;48.048;8.306;2023-04-06T09:28:56;10.30;;;4.50;;
75090;SDS011;63674;48.048;8.306;2023-04-06T09:31:28;8.63;;;4.30;;
75090;SDS011;63674;48.048;8.306;2023-04-06T09:34:01;10.85;;;4.70;;
75090;SDS011;63674;48.048;8.306;2023-04-06T09:36:30;8.27;;;4.10;;
75090;SDS011;63674;48.048;8.306;2023-04-06T09:39:01;9.23;;;4.50;;
75090;SDS011;63674;48.048;8.306;2023-04-06T09:41:31;10.00;;;4.22;;
75090;SDS011;63674;48.048;8.306;2023-04-06T09:44:02;10.70;;;4.50;;
75090;SDS011;63674;48.048;8.306;2023-04-06T09:46:33;12.80;;;4.63;;
75090;SDS011;63674;48.048;8.306;2023-04-06T09:49:24;8.77;;;4.40;;
75090;SDS011;63674;48.048;8.306;2023-04-06T09:51:59;10.38;;;4.80;;
75090;SDS011;63674;48.048;8.306;2023-04-06T09:54:30;12.23;;;5.10;;
75090;SDS011;63674;48.048;8.306;2023-04-06T09:57:01;10.88;;;4.55;;
75090;SDS011;63674;48.048;8.306;2023-04-06T09:59:43;10.45;;;5.07;;
75090;SDS011;63674;48.048;8.306;2023-04-06T10:02:20;9.47;;;4.47;;
75090;SDS011;63674;48.048;8.306;2023-04-06T10:05:01;10.68;;;4.97;;
75090;SDS011;63674;48.048;8.306;2023-04-06T10:07:35;10.65;;;4.75;;
75090;SDS011;63674;48.048;8.306;2023-04-06T10:10:24;11.02;;;5.07;;
75090;SDS011;63674;48.048;8.306;2023-04-06T10:12:53;10.20;;;4.88;;
75090;SDS011;63674;48.048;8.306;2023-04-06T10:15:23;9.97;;;4.30;;
75090;SDS011;63674;48.048;8.306;2023-04-06T10:17:51;10.50;;;5.40;;
75090;SDS011;63674;48.048;8.306;2023-04-06T10:20:22;10.32;;;4.72;;
75090;SDS011;63674;48.048;8.306;2023-04-06T10:22:57;10.20;;;4.40;;
75090;SDS011;63674;48.048;8.306;2023-04-06T10:25:33;9.93;;;4.70;;
75090;SDS011;63674;48.048;8.306;2023-04-06T10:28:04;10.90;;;4.77;;
75090;SDS011;63674;48.048;8.306;2023-04-06T10:30:35;9.13;;;4.68;;
75090;SDS011;63674;48.048;8.306;2023-04-06T10:33:13;10.10;;;4.13;;
75090;SDS011;63674;48.048;8.306;2023-04-06T10:35:44;9.02;;;4.70;;
75090;SDS011;63674;48.048;8.306;2023-04-06T10:38:13;10.55;;;5.50;;
75090;SDS011;63674;48.048;8.306;2023-04-06T10:40:46;10.70;;;5.47;;
75090;SDS011;63674;48.048;8.306;2023-04-06T10:43:18;10.02;;;4.57;;
75090;SDS011;63674;48.048;8.306;2023-04-06T10:45:54;9.93;;;4.78;;
75090;SDS011;63674;48.048;8.306;2023-04-06T10:48:35;11.38;;;5.28;;
75090;SDS011;63674;48.048;8.306;2023-04-06T10:51:09;10.05;;;4.35;;
75090;SDS011;63674;48.048;8.306;2023-04-06T10:53:39;10.73;;;5.17;;
75090;SDS011;63674;48.048;8.306;2023-04-06T10:56:10;10.60;;;5.32;;
75090;SDS011;63674;48.048;8.306;2023-04-06T10:58:43;11.70;;;5.20;;
75090;SDS011;63674;48.048;8.306;2023-04-06T11:01:14;10.52;;;5.05;;
75090;SDS011;63674;48.048;8.306;2023-04-06T11:03:44;10.68;;;5.05;;
75090;SDS011;63674;48.048;8.306;2023-04-06T11:06:21;10.97;;;5.17;;
75090;SDS011;63674;48.048;8.306;2023-04-06T11:08:53;12.15;;;5.90;;
75090;SDS011;63674;48.048;8.306;2023-04-06T11:11:23;9.98;;;4.70;;
75090;SDS011;63674;48.048;8.306;2023-04-06T11:13:54;11.02;;;5.18;;
75090;SDS011;63674;48.048;8.306;2023-04-06T11:16:25;11.05;;;5.13;;
75090;SDS011;63674;48.048;8.306;2023-04-06T11:18:56;10.23;;;5.10;;
75090;SDS011;63674;48.048;8.306;2023-04-06T11:21:34;10.82;;;5.57;;
75090;SDS011;63674;48.048;8.306;2023-04-06T11:24:06;11.77;;;5.10;;
75090;SDS011;63674;48.048;8.306;2023-04-06T11:26:37;10.10;;;4.70;;
75090;SDS011;63674;48.048;8.306;2023-04-06T11:29:07;10.88;;;5.00;;
75090;SDS011;63674;48.048;8.306;2023-04-06T11:31:44;9.83;;;4.83;;
75090;SDS011;63674;48.048;8.306;2023-04-06T11:34:16;10.20;;;4.85;;
75090;SDS011;63674;48.048;8.306;2023-04-06T11:36:48;10.25;;;4.65;;
75090;SDS011;63674;48.048;8.306;2023-04-06T11:39:24;9.13;;;4.07;;
75090;SDS011;63674;48.048;8.306;2023-04-06T11:41:54;10.27;;;4.90;;
75090;SDS011;63674;48.048;8.306;2023-04-06T11:44:28;9.17;;;4.17;;
75090;SDS011;63674;48.048;8.306;2023-04-06T11:47:00;9.25;;;4.60;;
75090;SDS011;63674;48.048;8.306;2023-04-06T11:49:29;9.27;;;4.47;;
75090;SDS011;63674;48.048;8.306;2023-04-06T11:52:00;9.30;;;3.90;;
75090;SDS011;63674;48.048;8.306;2023-04-06T11:54:30;9.48;;;4.32;;
75090;SDS011;63674;48.048;8.306;2023-04-06T11:57:00;10.27;;;3.57;;
75090;SDS011;63674;48.048;8.306;2023-04-06T11:59:29;9.63;;;4.25;;
75090;SDS011;63674;48.048;8.306;2023-04-06T12:01:59;8.40;;;4.35;;
75090;SDS011;63674;48.048;8.306;2023-04-06T12:04:28;8.77;;;4.32;;
75090;SDS011;63674;48.048;8.306;2023-04-06T12:06:57;9.65;;;4.40;;
75090;SDS011;63674;48.048;8.306;2023-04-06T12:09:27;9.93;;;4.40;;
75090;SDS011;63674;48.048;8.306;2023-04-06T12:11:56;10.05;;;3.78;;
75090;SDS011;63674;48.048;8.306;2023-04-06T12:14:25;8.65;;;3.83;;
75090;SDS011;63674;48.048;8.306;2023-04-06T12:16:54;9.25;;;3.47;;
75090;SDS011;63674;48.048;8.306;2023-04-06T12:19:22;7.85;;;3.40;;
75090;SDS011;63674;48.048;8.306;2023-04-06T12:21:52;7.50;;;3.80;;
75090;SDS011;63674;48.048;8.306;2023-04-06T12:24:22;8.55;;;3.88;;
75090;SDS011;63674;48.048;8.306;2023-04-06T12:26:51;8.45;;;4.20;;
75090;SDS011;63674;48.048;8.306;2023-04-06T12:29:35;7.43;;;3.67;;
75090;SDS011;63674;48.048;8.306;2023-04-06T12:32:03;7.85;;;3.60;;
75090;SDS011;63674;48.048;8.306;2023-04-06T12:34:32;8.77;;;3.97;;
75090;SDS011;63674;48.048;8.306;2023-04-06T12:37:01;8.63;;;4.10;;
75090;SDS011;63674;48.048;8.306;2023-04-06T12:39:31;8.77;;;4.05;;
75090;SDS011;63674;48.048;8.306;2023-04-06T12:41:59;8.75;;;3.17;;
75090;SDS011;63674;48.048;8.306;2023-04-06T12:44:29;9.07;;;3.90;;
75090;SDS011;63674;48.048;8.306;2023-04-06T12:46:57;8.00;;;3.50;;
75090;SDS011;63674;48.048;8.306;2023-04-06T12:49:26;7.65;;;3.47;;
75090;SDS011;63674;48.048;8.306;2023-04-06T12:51:57;9.95;;;3.97;;
75090;SDS011;63674;48.048;8.306;2023-04-06T12:54:25;9.35;;;4.60;;
75090;SDS011;63674;48.048;8.306;2023-04-06T12:56:56;10.60;;;5.05;;
75090;SDS011;63674;48.048;8.306;2023-04-06T12:59:25;8.43;;;4.17;;
75090;SDS011;63674;48.048;8.306;2023-04-06T13:01:57;8.07;;;4.00;;
75090;SDS011;63674;48.048;8.306;2023-04-06T13:04:26;8.73;;;3.85;;
75090;SDS011;63674;48.048;8.306;2023-04-06T13:06:55;8.23;;;3.45;;
75090;SDS011;63674;48.048;8.306;2023-04-06T13:09:23;7.85;;;4.00;;
75090;SDS011;63674;48.048;8.306;2023-04-06T13:11:52;10.50;;;5.53;;
75090;SDS011;63674;48.048;8.306;2023-04-06T13:14:22;8.52;;;3.83;;
75090;SDS011;63674;48.048;8.306;2023-04-06T13:16:51;10.02;;;4.05;;
75090;SDS011;63674;48.048;8.306;2023-04-06T13:19:19;8.45;;;3.28;;
75090;SDS011;63674;48.048;8.306;2023-04-06T13:21:49;10.50;;;5.00;;
75090;SDS011;63674;48.048;8.306;2023-04-06T13:24:17;8.93;;;3.60;;
75090;SDS011;63674;48.048;8.306;2023-04-06T13:26:48;7.82;;;3.80;;
75090;SDS011;63674;48.048;8.306;2023-04-06T13:29:17;7.82;;;3.40;;
75090;SDS011;63674;48.048;8.306;2023-04-06T13:31:47;7.95;;;3.53;;
75090;SDS011;63674;48.048;8.306;2023-04-06T13:34:15;8.98;;;3.90;;
75090;SDS011;63674;48.048;8.306;2023-04-06T13:36:44;7.97;;;3.60;;
75090;SDS011;63674;48.048;8.306;2023-04-06T13:39:13;10.23;;;4.90;;
75090;SDS011;63674;48.048;8.306;2023-04-06T13:41:41;8.43;;;3.60;;
75090;SDS011;63674;48.048;8.306;2023-04-06T13:44:10;6.65;;;2.80;;
75090;SDS011;63674;48.048;8.306;2023-04-06T13:46:38;7.60;;;3.17;;
75090;SDS011;63674;48.048;8.306;2023-04-06T13:49:08;9.90;;;4.10;;
75090;SDS011;63674;48.048;8.306;2023-04-06T13:51:37;6.70;;;3.05;;
75090;SDS011;63674;48.048;8.306;2023-04-06T13:54:05;7.38;;;3.15;;
75090;SDS011;63674;48.048;8.306;2023-04-06T13:56:34;7.43;;;2.65;;
75090;SDS011;63674;48.048;8.306;2023-04-06T13:59:02;6.65;;;2.60;;
75090;SDS011;63674;48.048;8.306;2023-04-06T14:01:31;6.63;;;2.60;;
75090;SDS011;63674;48.048;8.306;2023-04-06T14:04:00;6.78;;;2.20;;
75090;SDS011;63674;48.048;8.306;2023-04-06T14:06:30;8.23;;;3.85;;
75090;SDS011;63674;48.048;8.306;2023-04-06T14:08:58;6.43;;;2.40;;
75090;SDS011;63674;48.048;8.306;2023-04-06T14:11:27;6.63;;;2.67;;
75090;SDS011;63674;48.048;8.306;2023-04-06T14:13:56;6.93;;;2.63;;
75090;SDS011;63674;48.048;8.306;2023-04-06T14:16:24;6.18;;;2.67;;
75090;SDS011;63674;48.048;8.306;2023-04-06T14:18:53;6.55;;;2.40;;
75090;SDS011;63674;48.048;8.306;2023-04-06T14:21:24;6.57;;;2.75;;
75090;SDS011;63674;48.048;8.306;2023-04-06T14:23:54;7.95;;;3.00;;
75090;SDS011;63674;48.048;8.306;2023-04-06T14:26:25;6.70;;;2.73;;
75090;SDS011;63674;48.048;8.306;2023-04-06T14:28:54;7.20;;;2.85;;
75090;SDS011;63674;48.048;8.306;2023-04-06T14:31:22;8.00;;;2.70;;
75090;SDS011;63674;48.048;8.306;2023-04-06T14:33:51;7.97;;;3.05;;
75090;SDS011;63674;48.048;8.306;2023-04-06T14:36:20;8.90;;;3.10;;
75090;SDS011;63674;48.048;8.306;2023-04-06T14:38:48;9.60;;;3.20;;
75090;SDS011;63674;48.048;8.306;2023-04-06T14:41:23;7.80;;;3.03;;
75090;SDS011;63674;48.048;8.306;2023-04-06T14:44:10;6.70;;;2.67;;
75090;SDS011;63674;48.048;8.306;2023-04-06T14:46:39;8.05;;;3.20;;
75090;SDS011;63674;48.048;8.306;2023-04-06T14:49:08;7.93;;;3.42;;
75090;SDS011;63674;48.048;8.306;2023-04-06T14:51:37;8.23;;;3.00;;
75090;SDS011;63674;48.048;8.306;2023-04-06T14:54:06;7.80;;;2.72;;
75090;SDS011;63674;48.048;8.306;2023-04-06T14:56:36;7.95;;;3.22;;
75090;SDS011;63674;48.048;8.306;2023-04-06T14:59:05;8.65;;;3.33;;